Time;durP1;ratioP1;P1;durP2;ratioP2;P2;SDS_P1;SDS_P2;PMS_P1;PMS_P2;Temp;Humidity;BMP_temperature;BMP_pressure;BME280_temperature;BME280_humidity;BME280_pressure;Samples;Min_cycle;Max_cycle;Signal;HPM_P1;HPM_P2
2022/07/26 00:01:19;;;;;;;15.40;4.93;;;18.00;99.90;;;;;;5040466;28;20049;-76
2022/07/26 00:03:46;;;;;;;14.43;3.83;;;18.00;99.90;;;;;;5025633;28;20059;-76
2022/07/26 00:06:11;;;;;;;13.43;3.72;;;17.90;99.90;;;;;;5005752;28;20037;-75
2022/07/26 00:08:37;;;;;;;19.55;4.10;;;17.90;99.90;;;;;;5025676;28;20044;-75
2022/07/26 00:11:04;;;;;;;12.77;3.95;;;17.90;99.90;;;;;;5037329;28;20048;-75
2022/07/26 00:13:29;;;;;;;15.35;3.72;;;17.90;99.90;;;;;;5038231;28;20029;-76
2022/07/26 00:15:55;;;;;;;17.05;4.13;;;17.80;99.90;;;;;;5014887;28;20129;-75
2022/07/26 00:18:21;;;;;;;15.90;3.90;;;17.80;99.90;;;;;;5039901;28;20032;-75
2022/07/26 00:20:47;;;;;;;18.08;3.58;;;17.80;99.90;;;;;;5023289;28;20044;-75
2022/07/26 00:23:13;;;;;;;13.50;4.18;;;17.80;99.90;;;;;;5040611;28;20040;-75
2022/07/26 00:25:39;;;;;;;15.30;3.95;;;17.80;99.90;;;;;;5023474;28;20040;-75
2022/07/26 00:28:05;;;;;;;16.48;3.60;;;17.80;99.90;;;;;;5056756;28;20035;-75
2022/07/26 00:30:31;;;;;;;15.38;3.95;;;17.80;99.90;;;;;;5022125;28;20036;-75
2022/07/26 00:32:57;;;;;;;12.75;3.55;;;17.80;99.90;;;;;;5028874;28;20045;-76
2022/07/26 00:35:23;;;;;;;14.50;4.07;;;17.80;99.90;;;;;;5025025;28;20087;-75
2022/07/26 00:37:49;;;;;;;18.63;4.65;;;17.80;99.90;;;;;;5057685;28;20036;-75
2022/07/26 00:40:15;;;;;;;12.75;4.30;;;17.90;99.90;;;;;;5027048;28;20048;-75
2022/07/26 00:42:42;;;;;;;13.60;3.67;;;17.80;99.90;;;;;;5051058;28;20037;-75
2022/07/26 00:45:09;;;;;;;15.68;4.15;;;17.80;99.90;;;;;;5055097;28;20125;-75
2022/07/26 00:47:36;;;;;;;16.98;4.13;;;17.90;99.90;;;;;;5043173;28;20052;-75
2022/07/26 00:50:04;;;;;;;17.27;4.35;;;17.90;99.90;;;;;;5053049;28;20044;-76
2022/07/26 00:52:30;;;;;;;12.60;4.75;;;17.90;99.90;;;;;;5041879;28;20386;-76
2022/07/26 00:54:56;;;;;;;13.40;4.68;;;17.90;99.90;;;;;;5008895;28;20615;-75
2022/07/26 00:57:22;;;;;;;18.38;4.22;;;17.90;99.90;;;;;;5016004;28;20064;-75
2022/07/26 00:59:48;;;;;;;26.50;5.68;;;17.90;99.90;;;;;;5025828;28;20379;-75
2022/07/26 01:02:15;;;;;;;12.05;4.07;;;17.90;99.90;;;;;;5036266;28;20040;-76
2022/07/26 01:04:43;;;;;;;14.25;3.92;;;17.80;99.90;;;;;;5057188;28;20040;-75
2022/07/26 01:07:09;;;;;;;15.40;5.07;;;17.80;99.90;;;;;;5037891;28;20181;-75
2022/07/26 01:09:35;;;;;;;15.63;4.78;;;17.80;99.90;;;;;;5059763;28;20045;-76
2022/07/26 01:12:01;;;;;;;17.90;4.50;;;17.80;99.90;;;;;;5021617;28;20051;-75
2022/07/26 01:14:27;;;;;;;15.13;4.22;;;17.70;99.90;;;;;;5034486;28;20048;-76
2022/07/26 01:16:53;;;;;;;11.50;4.60;;;17.70;99.90;;;;;;5042028;28;20176;-75
2022/07/26 01:19:22;;;;;;;17.60;4.65;;;17.60;99.90;;;;;;5024044;28;20036;-76
2022/07/26 01:21:49;;;;;;;16.40;4.38;;;17.60;99.90;;;;;;5028567;28;20486;-77
2022/07/26 01:24:15;;;;;;;18.70;5.03;;;17.60;99.90;;;;;;5025866;28;20040;-76
2022/07/26 01:26:41;;;;;;;17.63;4.60;;;17.60;99.90;;;;;;5024847;28;20041;-76
2022/07/26 01:29:06;;;;;;;14.93;4.57;;;17.60;99.90;;;;;;5010816;28;20174;-76
2022/07/26 01:31:32;;;;;;;14.30;4.63;;;17.60;99.90;;;;;;5023633;28;20051;-76
2022/07/26 01:33:58;;;;;;;16.13;4.57;;;17.50;99.90;;;;;;5034195;28;20059;-75
2022/07/26 01:36:24;;;;;;;16.02;4.72;;;17.50;99.90;;;;;;5032134;28;20238;-76
2022/07/26 01:38:49;;;;;;;19.10;5.05;;;17.50;99.90;;;;;;5020445;28;20059;-76
2022/07/26 01:41:15;;;;;;;18.55;5.30;;;17.50;99.90;;;;;;5039205;28;20091;-76
2022/07/26 01:43:41;;;;;;;15.57;4.80;;;17.40;99.90;;;;;;5054826;28;20057;-76
2022/07/26 01:46:08;;;;;;;18.83;4.88;;;17.40;99.90;;;;;;5056127;28;20044;-76
2022/07/26 01:48:34;;;;;;;15.27;4.93;;;17.40;99.90;;;;;;5054997;28;20056;-75
2022/07/26 01:51:00;;;;;;;14.20;5.20;;;17.30;99.90;;;;;;5023298;28;20141;-76
2022/07/26 01:53:26;;;;;;;17.55;5.78;;;17.30;99.90;;;;;;5040295;28;20112;-76
2022/07/26 01:55:52;;;;;;;19.88;5.30;;;17.30;99.90;;;;;;5023791;28;20043;-76
2022/07/26 01:58:18;;;;;;;13.35;4.93;;;17.30;99.90;;;;;;5037811;28;20037;-76
2022/07/26 02:00:43;;;;;;;18.38;5.25;;;17.30;99.90;;;;;;5024184;28;20039;-76
2022/07/26 02:03:09;;;;;;;21.30;5.95;;;17.30;99.90;;;;;;5024829;28;20037;-76
2022/07/26 02:05:35;;;;;;;16.77;4.63;;;17.30;99.90;;;;;;5037633;28;20080;-76
2022/07/26 02:08:01;;;;;;;21.20;6.03;;;17.30;99.90;;;;;;5025393;28;20028;-76
2022/07/26 02:13:12;;;;;;;19.90;5.40;;;17.20;99.90;;;;;;5040700;28;20033;-76
2022/07/26 02:15:38;;;;;;;18.02;5.18;;;17.20;99.90;;;;;;5054802;28;20045;-75
2022/07/26 02:18:04;;;;;;;16.65;4.80;;;17.20;99.90;;;;;;5018625;28;20052;-76
2022/07/26 02:20:32;;;;;;;12.55;5.38;;;17.10;99.90;;;;;;5038525;28;20037;-77
2022/07/26 02:22:59;;;;;;;16.88;6.00;;;17.10;99.90;;;;;;5021413;28;20052;-76
2022/07/26 02:25:25;;;;;;;16.80;5.45;;;17.10;99.90;;;;;;5040709;28;20044;-76
2022/07/26 02:27:50;;;;;;;18.92;5.55;;;17.10;99.90;;;;;;5044587;28;20424;-76
2022/07/26 02:30:16;;;;;;;21.58;6.20;;;17.10;99.90;;;;;;5023488;28;20474;-76
2022/07/26 02:32:42;;;;;;;19.70;5.55;;;17.10;99.90;;;;;;5024290;28;20083;-76
2022/07/26 02:35:08;;;;;;;17.73;5.32;;;17.10;99.90;;;;;;5007695;28;20044;-76
2022/07/26 02:37:34;;;;;;;17.88;6.00;;;17.10;99.90;;;;;;5005664;28;20053;-76
2022/07/26 02:40:07;;;;;;;28.13;6.38;;;17.10;99.90;;;;;;5016032;28;20450;-76
2022/07/26 02:42:32;;;;;;;;;;;17.10;99.90;;;;;;5016598;28;20049;-76
2022/07/26 02:44:58;;;;;;;14.82;6.13;;;17.10;99.90;;;;;;5009187;28;19929;-76
2022/07/26 02:47:24;;;;;;;17.88;5.10;;;17.10;99.90;;;;;;5003737;28;20074;-75
2022/07/26 02:49:49;;;;;;;16.48;5.70;;;17.10;99.90;;;;;;5018217;28;20028;-75
2022/07/26 02:52:16;;;;;;;25.85;6.03;;;17.10;99.90;;;;;;5000272;28;20496;-76
2022/07/26 02:54:42;;;;;;;16.23;5.95;;;17.10;99.90;;;;;;5020450;28;20038;-76
2022/07/26 02:57:08;;;;;;;17.20;5.75;;;17.10;99.90;;;;;;5012325;28;20395;-76
2022/07/26 02:59:34;;;;;;;20.38;5.80;;;17.10;99.90;;;;;;5017818;28;20064;-75
2022/07/26 03:02:00;;;;;;;17.25;5.85;;;17.10;99.90;;;;;;4979041;28;20068;-76
2022/07/26 03:04:26;;;;;;;21.52;5.78;;;17.10;99.90;;;;;;5014439;28;20454;-75
2022/07/26 03:06:51;;;;;;;26.20;5.95;;;17.10;99.90;;;;;;5018542;28;20096;-75
2022/07/26 03:09:17;;;;;;;19.17;5.45;;;17.10;99.90;;;;;;5019244;28;20318;-76
2022/07/26 03:11:43;;;;;;;20.35;6.15;;;17.10;99.90;;;;;;5002500;28;20040;-76
2022/07/26 03:14:08;;;;;;;17.05;5.95;;;17.00;99.90;;;;;;5024107;28;20493;-75
2022/07/26 03:16:34;;;;;;;25.10;5.95;;;17.00;99.90;;;;;;5006090;28;20037;-75
2022/07/26 03:19:00;;;;;;;17.73;5.13;;;17.00;99.90;;;;;;5017899;28;20040;-75
2022/07/26 03:21:26;;;;;;;20.90;5.53;;;17.00;99.90;;;;;;5018007;28;20040;-75
2022/07/26 03:23:52;;;;;;;17.52;5.47;;;17.00;99.90;;;;;;5008190;28;20074;-75
2022/07/26 03:26:18;;;;;;;10.23;4.95;;;17.00;99.90;;;;;;5006051;28;20047;-76
2022/07/26 03:28:44;;;;;;;18.10;5.10;;;16.90;99.90;;;;;;4988061;28;20561;-76
2022/07/26 03:31:11;;;;;;;19.05;5.75;;;17.00;99.90;;;;;;5020703;28;20037;-75
2022/07/26 03:33:40;;;;;;;23.10;5.53;;;16.90;99.90;;;;;;5024254;28;20123;-75
2022/07/26 03:36:09;;;;;;;16.92;5.53;;;17.00;99.90;;;;;;5009808;28;20040;-75
2022/07/26 03:38:35;;;;;;;20.42;6.03;;;16.90;99.90;;;;;;5024268;28;20065;-75
2022/07/26 03:41:01;;;;;;;12.88;5.35;;;16.90;99.90;;;;;;5027897;28;20482;-75
2022/07/26 03:43:27;;;;;;;15.60;6.20;;;16.90;99.90;;;;;;5040953;28;20159;-75
2022/07/26 03:45:53;;;;;;;19.67;6.35;;;16.90;99.90;;;;;;5018481;28;20466;-75
2022/07/26 03:48:18;;;;;;;17.50;5.97;;;16.90;99.90;;;;;;5021348;28;20029;-75
2022/07/26 03:50:44;;;;;;;23.90;5.70;;;16.90;99.90;;;;;;5017165;28;20510;-76
2022/07/26 03:53:10;;;;;;;20.80;5.50;;;16.90;99.90;;;;;;5021582;28;20033;-75
2022/07/26 03:58:20;;;;;;;15.18;5.90;;;16.90;99.90;;;;;;5038528;28;20077;-75
2022/07/26 04:00:46;;;;;;;17.67;5.95;;;16.80;99.90;;;;;;5039981;28;20045;-75
2022/07/26 04:03:12;;;;;;;17.08;6.35;;;16.90;99.90;;;;;;5036500;28;20048;-76
2022/07/26 04:05:38;;;;;;;12.52;5.05;;;16.80;99.90;;;;;;5025405;28;20041;-76
2022/07/26 04:08:04;;;;;;;16.33;5.75;;;16.80;99.90;;;;;;5023997;28;20113;-76
2022/07/26 04:10:30;;;;;;;12.55;5.45;;;16.90;99.90;;;;;;5020350;28;20097;-77
2022/07/26 04:12:55;;;;;;;13.95;4.68;;;16.80;99.90;;;;;;5034854;28;20428;-76
2022/07/26 04:15:21;;;;;;;14.15;4.28;;;16.90;99.90;;;;;;4988638;28;20044;-76
2022/07/26 04:17:47;;;;;;;11.05;3.67;;;16.90;99.90;;;;;;5016784;28;20096;-76
2022/07/26 04:20:13;;;;;;;13.75;3.80;;;16.90;99.90;;;;;;5022999;28;20084;-74
2022/07/26 04:22:40;;;;;;;8.90;3.10;;;17.00;99.90;;;;;;5036043;28;20578;-74
2022/07/26 04:25:07;;;;;;;8.32;2.85;;;16.90;99.90;;;;;;5040236;28;20048;-74
2022/07/26 04:27:33;;;;;;;7.70;3.13;;;17.00;99.90;;;;;;5021130;28;20402;-74
2022/07/26 04:29:59;;;;;;;9.35;2.60;;;17.00;99.90;;;;;;5022555;28;20045;-74
2022/07/26 04:32:24;;;;;;;7.28;3.10;;;17.00;99.90;;;;;;5022867;28;20032;-74
2022/07/26 04:34:50;;;;;;;7.28;2.35;;;16.90;99.90;;;;;;5021740;28;20424;-74
2022/07/26 04:37:16;;;;;;;8.05;2.70;;;17.00;99.90;;;;;;5039455;28;20099;-74
2022/07/26 04:39:42;;;;;;;6.10;2.72;;;17.00;99.90;;;;;;5044293;28;20065;-74
2022/07/26 04:42:08;;;;;;;6.85;2.60;;;17.00;99.90;;;;;;5022698;28;20052;-76
2022/07/26 04:44:34;;;;;;;9.90;2.97;;;17.00;99.90;;;;;;5050956;28;20038;-75
2022/07/26 04:47:00;;;;;;;8.40;3.13;;;17.00;99.90;;;;;;5007141;28;20029;-75
2022/07/26 04:49:26;;;;;;;8.35;3.10;;;17.10;99.90;;;;;;5009174;28;20086;-75
2022/07/26 04:51:51;;;;;;;8.98;2.88;;;17.00;99.90;;;;;;5039475;28;20404;-76
2022/07/26 04:54:21;;;;;;;7.40;2.95;;;17.00;99.90;;;;;;5041368;28;20081;-76
2022/07/26 04:56:48;;;;;;;9.25;2.88;;;17.00;99.90;;;;;;5041657;28;20044;-75
2022/07/26 04:59:14;;;;;;;9.82;3.05;;;17.00;99.90;;;;;;5040238;28;20047;-76
2022/07/26 05:01:40;;;;;;;7.97;2.70;;;17.00;99.90;;;;;;5027201;28;20105;-75
2022/07/26 05:04:05;;;;;;;7.38;2.88;;;17.00;99.90;;;;;;5024656;28;20036;-76
2022/07/26 05:06:31;;;;;;;7.75;3.22;;;17.00;99.90;;;;;;5022877;28;20382;-76
2022/07/26 05:08:57;;;;;;;7.85;2.80;;;17.00;99.90;;;;;;5036828;28;20067;-76
2022/07/26 05:11:23;;;;;;;7.70;2.90;;;17.10;99.90;;;;;;5007043;28;20037;-76
2022/07/26 05:13:49;;;;;;;7.32;2.90;;;17.10;99.90;;;;;;5040994;28;20214;-76
2022/07/26 05:16:15;;;;;;;9.02;2.55;;;17.10;99.90;;;;;;5045675;28;20411;-75
2022/07/26 05:18:41;;;;;;;8.25;2.50;;;17.00;99.90;;;;;;5037331;28;20183;-76
2022/07/26 05:21:07;;;;;;;5.28;2.42;;;17.10;99.90;;;;;;5060169;28;20045;-77
2022/07/26 05:23:32;;;;;;;6.93;3.05;;;17.10;99.90;;;;;;5021120;28;20060;-76
2022/07/26 05:25:58;;;;;;;10.30;2.60;;;17.10;99.90;;;;;;5026440;28;20051;-75
2022/07/26 05:28:24;;;;;;;8.40;2.50;;;17.10;99.90;;;;;;5060085;28;20041;-76
2022/07/26 05:30:50;;;;;;;5.65;2.13;;;17.10;99.90;;;;;;5023656;28;20032;-76
2022/07/26 05:33:15;;;;;;;4.35;2.17;;;17.10;99.90;;;;;;5040689;28;20052;-76
2022/07/26 05:35:41;;;;;;;5.15;2.33;;;17.10;99.90;;;;;;5022035;28;20040;-76
2022/07/26 05:38:07;;;;;;;3.65;2.25;;;17.20;99.90;;;;;;5020151;28;20041;-76
2022/07/26 05:40:33;;;;;;;7.90;2.30;;;17.20;99.90;;;;;;5036865;28;20525;-76
2022/07/26 05:42:58;;;;;;;12.25;2.58;;;17.20;99.90;;;;;;5025861;28;20426;-76
2022/07/26 05:45:24;;;;;;;5.85;2.10;;;17.20;99.90;;;;;;5007221;28;20040;-76
2022/07/26 05:47:51;;;;;;;5.82;2.22;;;17.20;99.90;;;;;;5008201;28;20046;-77
2022/07/26 05:50:18;;;;;;;7.15;1.70;;;17.30;99.90;;;;;;5040909;28;20631;-76
2022/07/26 05:52:44;;;;;;;5.53;2.53;;;17.30;99.90;;;;;;5038802;28;20051;-75
2022/07/26 05:55:11;;;;;;;4.78;2.00;;;17.30;99.90;;;;;;5035395;28;20139;-76
2022/07/26 05:57:40;;;;;;;4.90;2.40;;;17.30;99.90;;;;;;5051451;28;20037;-76
2022/07/26 06:00:08;;;;;;;5.20;1.90;;;17.30;99.90;;;;;;5025825;28;20504;-76
2022/07/26 06:02:33;;;;;;;6.35;2.15;;;17.30;99.90;;;;;;5043070;28;20480;-76
2022/07/26 06:04:59;;;;;;;7.68;2.65;;;17.30;99.90;;;;;;5034700;28;20048;-77
2022/07/26 06:07:25;;;;;;;5.97;2.58;;;17.30;99.90;;;;;;5036652;28;20075;-76
2022/07/26 06:09:51;;;;;;;7.05;2.28;;;17.20;99.90;;;;;;5036605;28;20036;-76
2022/07/26 06:12:16;;;;;;;4.25;1.65;;;17.20;99.90;;;;;;5041367;28;20044;-76
2022/07/26 06:14:45;;;;;;;8.68;1.88;;;17.10;99.90;;;;;;5007725;28;20036;-77
2022/07/26 06:17:11;;;;;;;4.55;1.48;;;17.00;99.90;;;;;;5024243;28;20036;-77
2022/07/26 06:19:36;;;;;;;5.30;1.30;;;17.00;99.90;;;;;;5037351;28;20429;-76
2022/07/26 06:22:03;;;;;;;3.75;1.70;;;17.00;99.90;;;;;;5038084;28;20083;-76
2022/07/26 06:24:28;;;;;;;9.50;1.80;;;17.00;99.90;;;;;;5037125;28;20509;-76
2022/07/26 06:26:55;;;;;;;7.10;2.25;;;17.10;99.90;;;;;;5024539;28;20040;-76
2022/07/26 06:29:22;;;;;;;3.35;1.45;;;17.10;99.90;;;;;;5057979;28;20037;-76
2022/07/26 06:31:48;;;;;;;6.32;1.52;;;17.20;99.90;;;;;;5040400;28;20049;-77
2022/07/26 06:34:14;;;;;;;6.07;1.60;;;17.20;99.90;;;;;;5038598;28;20044;-79
2022/07/26 06:36:40;;;;;;;4.53;1.35;;;17.30;99.90;;;;;;5023198;28;20043;-77
2022/07/26 06:39:06;;;;;;;4.95;1.40;;;17.30;99.90;;;;;;5053484;28;20040;-77
2022/07/26 06:41:32;;;;;;;6.97;1.70;;;17.40;99.90;;;;;;4995818;28;20143;-76
2022/07/26 06:43:57;;;;;;;6.50;1.50;;;17.50;99.90;;;;;;5013450;28;20040;-76
2022/07/26 06:46:23;;;;;;;4.72;1.58;;;17.50;99.90;;;;;;5024852;28;20032;-76
2022/07/26 06:48:49;;;;;;;4.13;1.35;;;17.60;99.90;;;;;;5022101;28;20028;-76
2022/07/26 06:51:15;;;;;;;4.43;1.00;;;17.70;99.90;;;;;;5021927;28;20037;-77
2022/07/26 06:53:41;;;;;;;5.10;1.50;;;17.70;99.90;;;;;;5023004;28;20124;-78
2022/07/26 06:56:07;;;;;;;2.33;1.38;;;17.70;99.90;;;;;;5056516;28;20036;-77
2022/07/26 06:58:33;;;;;;;3.33;1.20;;;17.50;99.90;;;;;;5039973;28;20134;-76
2022/07/26 07:00:58;;;;;;;4.38;1.30;;;17.30;99.90;;;;;;5010851;28;20103;-78
2022/07/26 07:03:24;;;;;;;2.22;0.75;;;17.00;99.90;;;;;;5043464;28;20691;-79
2022/07/26 07:05:50;;;;;;;3.00;1.13;;;16.80;99.90;;;;;;5028336;28;20146;-77
2022/07/26 07:08:16;;;;;;;2.90;1.02;;;16.70;99.90;;;;;;5028696;28;20032;-77
2022/07/26 07:10:42;;;;;;;2.33;1.00;;;16.60;99.90;;;;;;5041755;28;20036;-79
2022/07/26 07:13:08;;;;;;;3.78;0.90;;;16.60;99.90;;;;;;5024592;28;20037;-78
2022/07/26 07:15:34;;;;;;;1.90;0.90;;;16.60;99.90;;;;;;5060377;28;20047;-78
2022/07/26 07:18:00;;;;;;;4.93;1.70;;;16.60;99.90;;;;;;5027783;28;20040;-80
2022/07/26 07:20:27;;;;;;;2.17;1.10;;;16.70;99.90;;;;;;5041303;28;20486;-79
2022/07/26 07:22:53;;;;;;;4.93;1.50;;;16.70;99.90;;;;;;5016549;28;20129;-78
2022/07/26 07:25:19;;;;;;;5.20;1.50;;;16.80;99.90;;;;;;5008045;28;20048;-78
2022/07/26 07:27:44;;;;;;;5.45;1.65;;;16.90;99.90;;;;;;5009948;28;20317;-78
2022/07/26 07:30:11;;;;;;;8.82;1.85;;;17.00;99.90;;;;;;5028040;28;20041;-78
2022/07/26 07:32:37;;;;;;;6.38;1.80;;;17.10;99.90;;;;;;5008678;28;20572;-78
2022/07/26 07:35:03;;;;;;;5.57;1.45;;;17.30;99.90;;;;;;5008810;28;20045;-79
2022/07/26 07:37:29;;;;;;;6.45;1.80;;;17.40;99.90;;;;;;5025624;28;20119;-79
2022/07/26 07:39:55;;;;;;;4.93;1.35;;;17.40;99.90;;;;;;4996594;28;20593;-79
2022/07/26 07:42:20;;;;;;;5.93;1.45;;;17.40;99.90;;;;;;4994505;28;20056;-79
2022/07/26 07:44:46;;;;;;;4.57;1.65;;;17.40;99.90;;;;;;5012752;28;20045;-78
2022/07/26 07:47:13;;;;;;;6.07;1.38;;;17.30;99.90;;;;;;5010441;28;20088;-79
2022/07/26 07:49:38;;;;;;;1.88;1.00;;;17.10;99.90;;;;;;5007986;28;20041;-79
2022/07/26 07:52:05;;;;;;;6.35;1.98;;;16.90;99.90;;;;;;5024379;28;20033;-80
2022/07/26 07:54:30;;;;;;;4.20;1.13;;;16.80;99.90;;;;;;5009607;28;20389;-80
2022/07/26 07:56:56;;;;;;;6.38;1.38;;;16.80;99.90;;;;;;5023440;28;20044;-79
2022/07/26 07:59:22;;;;;;;5.18;1.30;;;16.70;99.90;;;;;;5009646;28;20688;-78
2022/07/26 08:01:49;;;;;;;9.13;2.00;;;16.70;99.90;;;;;;5006411;28;20034;-80
2022/07/26 08:04:15;;;;;;;5.50;1.10;;;16.70;99.90;;;;;;5041747;28;20037;-79
2022/07/26 08:06:40;;;;;;;6.07;1.30;;;16.70;99.90;;;;;;5026748;28;20068;-78
2022/07/26 08:09:06;;;;;;;3.15;1.27;;;16.70;99.90;;;;;;5026697;28;20239;-80
2022/07/26 08:11:32;;;;;;;4.90;1.30;;;16.70;99.90;;;;;;5010289;28;20044;-79
2022/07/26 08:13:58;;;;;;;8.02;1.20;;;16.70;99.90;;;;;;5009310;28;20072;-79
2022/07/26 08:16:24;;;;;;;5.68;1.50;;;16.70;99.90;;;;;;5009354;28;20120;-80
2022/07/26 08:18:49;;;;;;;4.80;1.50;;;16.80;99.90;;;;;;5005901;28;20029;-79
2022/07/26 08:21:15;;;;;;;3.35;1.20;;;16.80;99.90;;;;;;4991088;28;20108;-79
2022/07/26 08:23:41;;;;;;;3.63;1.42;;;16.90;99.90;;;;;;5021931;28;20029;-80
2022/07/26 08:26:06;;;;;;;5.22;1.65;;;17.10;99.90;;;;;;5008102;28;20037;-79
2022/07/26 08:28:32;;;;;;;5.68;1.60;;;17.20;99.90;;;;;;5004628;28;20330;-80
2022/07/26 08:30:58;;;;;;;4.55;1.30;;;17.30;99.90;;;;;;5008108;28;20131;-79
2022/07/26 08:33:24;;;;;;;4.57;1.20;;;17.40;99.90;;;;;;5006752;28;20041;-78
2022/07/26 08:35:49;;;;;;;5.82;1.30;;;17.60;99.90;;;;;;5007141;28;20110;-78
2022/07/26 08:38:15;;;;;;;4.57;1.40;;;17.80;99.90;;;;;;5024473;28;20044;-80
2022/07/26 08:40:41;;;;;;;5.65;1.48;;;18.00;99.90;;;;;;5003920;28;20135;-81
2022/07/26 08:43:07;;;;;;;7.72;1.65;;;18.10;99.90;;;;;;5018933;28;20064;-80
2022/07/26 08:45:33;;;;;;;5.45;1.50;;;18.10;99.90;;;;;;4984578;28;20045;-80
2022/07/26 08:48:02;;;;;;;3.42;1.52;;;18.20;99.90;;;;;;5014178;28;20036;-81
2022/07/26 08:50:28;;;;;;;4.90;1.42;;;18.10;99.90;;;;;;5004194;28;20041;-77
2022/07/26 08:53:00;;;;;;;6.15;1.23;;;18.20;99.90;;;;;;5000923;28;20068;-80
2022/07/26 08:55:26;;;;;;;5.18;1.17;;;18.20;99.90;;;;;;5016435;28;20192;-81
2022/07/26 08:57:52;;;;;;;7.45;1.35;;;18.20;99.90;;;;;;5034903;28;20458;-80
2022/07/26 09:00:24;;;;;;;2.97;1.02;;;18.10;99.90;;;;;;5012486;28;20045;-84
2022/07/26 09:02:55;;;;;;;2.40;1.15;;;18.00;99.90;;;;;;5017243;28;20045;-80
2022/07/26 09:05:32;;;;;;;4.00;1.13;;;17.90;99.90;;;;;;5025245;28;20486;-81
2022/07/26 09:07:59;;;;;;;8.07;1.70;;;17.90;99.90;;;;;;5023988;28;20501;-79
2022/07/26 09:10:26;;;;;;;4.50;1.30;;;18.00;99.90;;;;;;5002445;28;20072;-80
2022/07/26 09:12:56;;;;;;;3.47;1.15;;;18.10;99.90;;;;;;5015913;28;20068;-81
2022/07/26 09:15:25;;;;;;;8.23;1.35;;;18.20;99.90;;;;;;4991814;28;20136;-80
2022/07/26 09:17:53;;;;;;;5.80;1.40;;;18.30;99.90;;;;;;5005869;28;20029;-80
2022/07/26 09:20:30;;;;;;;4.10;1.30;;;18.30;99.90;;;;;;5020819;28;20056;-80
2022/07/26 09:23:08;;;;;;;11.45;1.90;;;18.70;99.90;;;;;;5023938;28;20037;-79
2022/07/26 09:25:36;;;;;;;6.43;1.83;;;18.70;99.90;;;;;;5013358;28;20048;-81
2022/07/26 09:28:03;;;;;;;7.53;2.00;;;18.70;99.90;;;;;;4999545;28;20052;-80
2022/07/26 09:30:31;;;;;;;6.40;1.27;;;18.40;99.90;;;;;;4997162;28;20110;-81
2022/07/26 09:33:05;;;;;;;6.25;1.48;;;18.30;99.90;;;;;;5017343;28;20175;-80
2022/07/26 09:35:33;;;;;;;3.73;1.20;;;18.10;99.90;;;;;;5026016;28;20037;-80
2022/07/26 09:38:00;;;;;;;5.40;1.48;;;18.00;99.90;;;;;;5000395;28;20037;-80
2022/07/26 09:40:34;;;;;;;5.03;1.15;;;17.90;99.90;;;;;;5003657;28;20787;-80
2022/07/26 09:43:03;;;;;;;5.25;1.55;;;17.90;99.90;;;;;;5023511;28;20037;-80
2022/07/26 09:45:32;;;;;;;3.60;1.30;;;17.90;99.90;;;;;;5023041;28;20128;-80
2022/07/26 09:47:58;;;;;;;6.10;1.30;;;17.90;99.90;;;;;;5020668;28;20053;-80
2022/07/26 09:50:28;;;;;;;4.20;1.65;;;18.10;99.90;;;;;;4997353;28;20037;-80
2022/07/26 09:52:57;;;;;;;8.68;1.55;;;18.20;99.90;;;;;;5017452;28;20041;-79
2022/07/26 09:55:23;;;;;;;3.28;1.08;;;18.40;99.90;;;;;;5023861;28;20060;-80
2022/07/26 09:57:50;;;;;;;3.80;1.52;;;18.60;99.90;;;;;;4991528;28;20037;-79
2022/07/26 10:00:16;;;;;;;5.22;1.63;;;18.60;99.90;;;;;;5005495;28;20048;-79
2022/07/26 10:02:42;;;;;;;3.78;1.02;;;18.60;99.90;;;;;;5004188;28;20607;-78
2022/07/26 10:05:08;;;;;;;4.28;1.30;;;18.60;99.90;;;;;;4987554;28;20079;-80
2022/07/26 10:07:35;;;;;;;6.00;1.40;;;18.70;99.90;;;;;;5020242;28;20127;-79
2022/07/26 10:10:10;;;;;;;7.03;1.85;;;18.80;99.90;;;;;;5018480;28;20102;-79
2022/07/26 10:12:36;;;;;;;2.80;1.20;;;18.90;99.90;;;;;;5003181;28;20106;-79
2022/07/26 10:15:02;;;;;;;4.57;1.65;;;19.10;99.90;;;;;;5003740;28;20436;-79
2022/07/26 10:17:28;;;;;;;4.35;1.58;;;19.40;99.90;;;;;;5037687;28;20044;-80
2022/07/26 10:19:54;;;;;;;4.13;1.35;;;19.60;99.90;;;;;;5002412;28;20630;-83
2022/07/26 10:22:29;;;;;;;3.67;1.20;;;19.70;99.90;;;;;;5003837;28;20393;-80
2022/07/26 10:24:56;;;;;;;5.72;1.35;;;19.80;99.90;;;;;;5021387;28;20037;-80
2022/07/26 10:27:39;;;;;;;4.95;1.70;;;19.80;99.90;;;;;;5005104;28;20036;-81
2022/07/26 10:30:17;;;;;;;6.15;1.65;;;19.90;99.90;;;;;;5002013;28;20466;-80
2022/07/26 10:33:08;;;;;;;4.60;1.40;;;19.80;99.90;;;;;;5002799;28;20040;-80
2022/07/26 10:35:43;;;;;;;5.30;1.65;;;19.50;99.90;;;;;;5036120;28;20425;-80
2022/07/26 10:38:25;;;;;;;4.90;1.60;;;19.30;99.90;;;;;;5004401;28;20909;-81
2022/07/26 10:41:01;;;;;;;5.25;1.80;;;19.00;99.90;;;;;;5037013;28;20525;-81
2022/07/26 10:43:29;;;;;;;8.18;1.95;;;18.80;99.90;;;;;;4989272;28;20048;-81
2022/07/26 10:46:14;;;;;;;7.35;1.80;;;18.50;99.90;;;;;;5006531;28;20537;-79
2022/07/26 10:49:05;;;;;;;11.07;1.98;;;18.30;99.90;;;;;;5010132;28;20461;-81
2022/07/26 10:51:36;;;;;;;6.75;1.65;;;18.20;99.90;;;;;;5009049;28;20047;-80
2022/07/26 10:54:08;;;;;;;6.40;1.90;;;18.00;99.90;;;;;;5037546;28;20040;-80
2022/07/26 10:56:35;;;;;;;6.45;1.85;;;17.90;99.90;;;;;;5005256;28;20459;-79
2022/07/26 10:59:01;;;;;;;7.68;2.15;;;17.90;99.90;;;;;;5039596;28;20525;-79
2022/07/26 11:01:35;;;;;;;9.27;2.03;;;17.90;99.90;;;;;;5009578;28;20040;-78
2022/07/26 11:04:01;;;;;;;7.18;2.10;;;18.00;99.90;;;;;;5003465;28;20041;-79
2022/07/26 11:06:31;;;;;;;6.65;2.05;;;18.10;99.90;;;;;;5023598;28;20037;-81
2022/07/26 11:08:57;;;;;;;7.43;2.00;;;18.20;99.90;;;;;;5023652;28;20029;-80
2022/07/26 11:11:31;;;;;;;8.15;2.00;;;18.40;99.90;;;;;;5039372;28;20510;-80
2022/07/26 11:14:08;;;;;;;10.40;3.30;;;18.60;99.90;;;;;;5019055;28;20174;-79
2022/07/26 11:16:43;;;;;;;8.77;2.45;;;18.80;99.90;;;;;;4991971;28;20513;-80
2022/07/26 11:19:20;;;;;;;10.48;2.30;;;18.70;99.90;;;;;;5021098;28;20033;-78
2022/07/26 11:21:54;;;;;;;7.10;1.90;;;18.70;99.90;;;;;;5019654;28;20542;-80
2022/07/26 11:24:20;;;;;;;6.88;1.95;;;18.70;99.90;;;;;;4999033;28;20041;-79
2022/07/26 11:26:47;;;;;;;7.25;2.20;;;18.70;99.90;;;;;;5020780;28;20068;-79
2022/07/26 11:29:13;;;;;;;9.38;2.47;;;18.60;99.90;;;;;;5018888;28;20202;-80
2022/07/26 11:31:39;;;;;;;9.80;2.60;;;18.50;99.90;;;;;;5005860;28;20025;-81
2022/07/26 11:34:06;;;;;;;10.13;2.30;;;18.30;99.90;;;;;;5007981;28;20529;-79
2022/07/26 11:36:37;;;;;;;11.05;2.78;;;18.20;99.90;;;;;;5018884;28;20147;-81
2022/07/26 11:39:12;;;;;;;8.88;2.35;;;18.10;99.90;;;;;;5020959;28;20636;-80
2022/07/26 11:41:40;;;;;;;10.63;2.67;;;17.90;99.90;;;;;;5030881;28;20045;-81
2022/07/26 11:44:06;;;;;;;12.80;3.20;;;17.80;99.90;;;;;;5042090;28;20090;-81
2022/07/26 11:46:38;;;;;;;9.23;2.63;;;17.70;99.90;;;;;;5045184;28;20098;-81
2022/07/26 11:49:19;;;;;;;17.02;3.38;;;17.70;99.90;;;;;;5060430;28;20485;-82
2022/07/26 11:52:02;;;;;;;11.70;3.00;;;17.80;99.90;;;;;;5064210;28;20041;-81
2022/07/26 11:54:31;;;;;;;14.38;3.60;;;18.00;99.90;;;;;;5031095;28;20045;-81
2022/07/26 11:57:02;;;;;;;8.55;2.55;;;18.20;99.90;;;;;;5035606;28;20095;-82
2022/07/26 11:59:30;;;;;;;9.88;2.53;;;18.40;99.90;;;;;;5021325;28;20106;-81
2022/07/26 12:01:57;;;;;;;18.48;3.15;;;18.60;99.90;;;;;;5035508;28;20044;-81
2022/07/26 12:04:29;;;;;;;10.05;2.70;;;18.70;99.90;;;;;;5049076;28;20054;-81
2022/07/26 12:06:57;;;;;;;10.32;3.47;;;18.70;99.90;;;;;;5035121;28;20032;-81
2022/07/26 12:09:33;;;;;;;10.75;2.55;;;18.70;99.90;;;;;;5017958;28;20608;-82
2022/07/26 12:11:59;;;;;;;7.88;2.60;;;18.60;99.90;;;;;;5032023;28;20033;-81
2022/07/26 12:14:30;;;;;;;15.95;2.67;;;18.50;99.90;;;;;;5037057;28;20401;-81
2022/07/26 12:16:56;;;;;;;12.93;2.42;;;18.40;99.90;;;;;;5049999;28;20114;-81
2022/07/26 12:19:27;;;;;;;5.38;2.38;;;18.40;99.90;;;;;;5034657;28;20037;-81
2022/07/26 12:22:06;;;;;;;7.15;2.00;;;18.40;99.90;;;;;;5018558;28;20097;-82
2022/07/26 12:25:04;;;;;;;6.03;1.98;;;18.30;99.90;;;;;;5039506;28;20045;-81
2022/07/26 12:27:32;;;;;;;12.77;2.10;;;18.40;99.90;;;;;;5022637;28;20037;-81
2022/07/26 12:30:01;;;;;;;6.10;2.05;;;18.50;99.90;;;;;;5034603;28;20461;-81
2022/07/26 12:32:32;;;;;;;7.28;2.55;;;18.50;99.90;;;;;;5034788;28;20116;-81
2022/07/26 12:35:02;;;;;;;7.47;1.90;;;18.60;99.90;;;;;;5053317;28;20052;-82
2022/07/26 12:37:29;;;;;;;6.57;2.35;;;18.60;99.90;;;;;;5034851;28;20364;-81
2022/07/26 12:40:09;;;;;;;8.13;2.63;;;18.70;99.90;;;;;;5048787;28;20136;-81
2022/07/26 12:42:53;;;;;;;7.13;2.30;;;18.70;99.90;;;;;;5021445;28;20041;-81
2022/07/26 12:45:30;;;;;;;4.18;1.92;;;18.80;99.90;;;;;;5047886;28;20132;-81
2022/07/26 12:47:58;;;;;;;7.78;1.95;;;19.00;99.90;;;;;;5028727;28;20555;-81
2022/07/26 12:50:26;;;;;;;6.90;2.30;;;19.10;99.90;;;;;;5029303;28;20047;-81